sensor_id;sensor_type;location;lat;lon;timestamp;temperature;humidity
26613;DHT22;14248;57.652;11.908;2023-05-21T06:41:51;26.70;53.20
26613;DHT22;14248;57.652;11.908;2023-05-21T06:44:17;14.50;99.40
26613;DHT22;14248;57.652;11.908;2023-05-21T06:46:43;14.40;99.20
26613;DHT22;14248;57.652;11.908;2023-05-21T06:49:10;14.50;99.10
26613;DHT22;14248;57.652;11.908;2023-05-21T09:31:12;14.60;98.90
26613;DHT22;14248;57.652;11.908;2023-05-21T09:33:45;20.00;79.20
26613;DHT22;14248;57.652;11.908;2023-05-21T09:36:11;20.10;78.20
26613;DHT22;14248;57.652;11.908;2023-05-21T09:41:06;20.10;77.80
26613;DHT22;14248;57.652;11.908;2023-05-21T09:43:31;20.30;78.60
26613;DHT22;14248;57.652;11.908;2023-05-21T09:45:58;20.40;79.00
26613;DHT22;14248;57.652;11.908;2023-05-21T09:48:37;20.50;78.80
26613;DHT22;14248;57.652;11.908;2023-05-21T09:51:13;20.60;78.40
26613;DHT22;14248;57.652;11.908;2023-05-21T09:53:42;20.80;78.60
26613;DHT22;14248;57.652;11.908;2023-05-21T09:56:09;20.80;78.00
26613;DHT22;14248;57.652;11.908;2023-05-21T09:58:35;20.90;78.10
26613;DHT22;14248;57.652;11.908;2023-05-21T10:01:02;21.00;78.40
26613;DHT22;14248;57.652;11.908;2023-05-21T10:25:34;21.10;78.00
26613;DHT22;14248;57.652;11.908;2023-05-21T10:28:00;22.20;74.50
26613;DHT22;14248;57.652;11.908;2023-05-21T10:32:54;22.20;73.90
26613;DHT22;14248;57.652;11.908;2023-05-21T10:35:22;22.40;74.30
26613;DHT22;14248;57.652;11.908;2023-05-21T10:37:48;22.50;73.80
26613;DHT22;14248;57.652;11.908;2023-05-21T11:21:14;24.10;68.90
26613;DHT22;14248;57.652;11.908;2023-05-21T12:28:38;24.00;64.40
26613;DHT22;14248;57.652;11.908;2023-05-21T12:31:04;24.30;62.80
26613;DHT22;14248;57.652;11.908;2023-05-21T12:33:33;24.40;63.20
26613;DHT22;14248;57.652;11.908;2023-05-21T12:35:59;24.50;62.40
26613;DHT22;14248;57.652;11.908;2023-05-21T12:38:29;24.60;62.60
26613;DHT22;14248;57.652;11.908;2023-05-21T12:41:01;24.80;61.30
26613;DHT22;14248;57.652;11.908;2023-05-21T12:43:31;24.80;61.10
26613;DHT22;14248;57.652;11.908;2023-05-21T12:45:56;24.80;61.90
26613;DHT22;14248;57.652;11.908;2023-05-21T12:48:22;24.90;61.40
26613;DHT22;14248;57.652;11.908;2023-05-21T12:50:51;25.10;61.40
26613;DHT22;14248;57.652;11.908;2023-05-21T13:44:49;25.20;61.00
26613;DHT22;14248;57.652;11.908;2023-05-21T13:47:16;32.20;48.60
26613;DHT22;14248;57.652;11.908;2023-05-21T13:52:10;32.40;46.50
26613;DHT22;14248;57.652;11.908;2023-05-21T13:54:36;33.00;45.10
26613;DHT22;14248;57.652;11.908;2023-05-21T13:57:01;33.10;45.60
26613;DHT22;14248;57.652;11.908;2023-05-21T13:59:27;33.40;44.20
26613;DHT22;14248;57.652;11.908;2023-05-21T14:01:53;33.70;44.80
26613;DHT22;14248;57.652;11.908;2023-05-21T14:04:19;34.10;44.40
26613;DHT22;14248;57.652;11.908;2023-05-21T14:06:45;34.20;43.30
26613;DHT22;14248;57.652;11.908;2023-05-21T14:09:12;33.60;43.50
26613;DHT22;14248;57.652;11.908;2023-05-21T14:11:37;33.20;43.40
26613;DHT22;14248;57.652;11.908;2023-05-21T14:14:03;33.00;44.40
26613;DHT22;14248;57.652;11.908;2023-05-21T14:16:30;33.30;44.00
26613;DHT22;14248;57.652;11.908;2023-05-21T14:23:49;33.60;43.10
26613;DHT22;14248;57.652;11.908;2023-05-21T14:26:15;34.50;42.90
26613;DHT22;14248;57.652;11.908;2023-05-21T14:28:41;35.00;43.30
26613;DHT22;14248;57.652;11.908;2023-05-21T14:31:08;35.50;42.10
26613;DHT22;14248;57.652;11.908;2023-05-21T14:33:35;35.60;40.90
26613;DHT22;14248;57.652;11.908;2023-05-21T14:36:01;35.80;40.70
26613;DHT22;14248;57.652;11.908;2023-05-21T14:38:27;35.90;41.00
26613;DHT22;14248;57.652;11.908;2023-05-21T14:40:53;35.90;40.60
26613;DHT22;14248;57.652;11.908;2023-05-21T14:43:19;35.50;40.10
26613;DHT22;14248;57.652;11.908;2023-05-21T14:45:44;34.90;39.80
26613;DHT22;14248;57.652;11.908;2023-05-21T14:48:10;34.50;40.90
26613;DHT22;14248;57.652;11.908;2023-05-21T14:50:40;34.40;41.10
26613;DHT22;14248;57.652;11.908;2023-05-21T14:53:07;34.20;40.90
26613;DHT22;14248;57.652;11.908;2023-05-21T15:02:52;33.60;41.30
26613;DHT22;14248;57.652;11.908;2023-05-21T15:05:18;34.10;42.00
26613;DHT22;14248;57.652;11.908;2023-05-21T15:07:44;34.50;41.00
26613;DHT22;14248;57.652;11.908;2023-05-21T15:10:10;34.80;40.80
26613;DHT22;14248;57.652;11.908;2023-05-21T15:12:39;35.20;40.90
26613;DHT22;14248;57.652;11.908;2023-05-21T15:15:06;35.60;40.40
26613;DHT22;14248;57.652;11.908;2023-05-21T15:17:33;35.70;40.10
26613;DHT22;14248;57.652;11.908;2023-05-21T15:19:59;35.50;39.80
26613;DHT22;14248;57.652;11.908;2023-05-21T15:22:32;35.00;40.60
26613;DHT22;14248;57.652;11.908;2023-05-21T15:24:59;34.80;41.30
26613;DHT22;14248;57.652;11.908;2023-05-21T15:27:25;35.00;41.60
26613;DHT22;14248;57.652;11.908;2023-05-21T15:29:51;35.40;40.90
26613;DHT22;14248;57.652;11.908;2023-05-21T15:32:18;35.90;41.10
26613;DHT22;14248;57.652;11.908;2023-05-21T15:34:46;36.30;40.20
26613;DHT22;14248;57.652;11.908;2023-05-21T15:37:11;36.50;39.90
26613;DHT22;14248;57.652;11.908;2023-05-21T15:39:46;36.60;39.20
26613;DHT22;14248;57.652;11.908;2023-05-21T15:42:13;36.40;39.70
26613;DHT22;14248;57.652;11.908;2023-05-21T15:44:39;36.40;39.80
26613;DHT22;14248;57.652;11.908;2023-05-21T15:47:06;36.60;39.60
26613;DHT22;14248;57.652;11.908;2023-05-21T15:49:32;36.90;39.30
26613;DHT22;14248;57.652;11.908;2023-05-21T15:51:58;36.70;39.30
26613;DHT22;14248;57.652;11.908;2023-05-21T15:54:25;36.50;39.00
26613;DHT22;14248;57.652;11.908;2023-05-21T15:56:51;36.10;39.60
26613;DHT22;14248;57.652;11.908;2023-05-21T15:59:17;35.90;39.70
26613;DHT22;14248;57.652;11.908;2023-05-21T16:01:43;36.10;40.10
26613;DHT22;14248;57.652;11.908;2023-05-21T16:04:09;36.30;39.10
26613;DHT22;14248;57.652;11.908;2023-05-21T16:06:35;36.20;39.00
26613;DHT22;14248;57.652;11.908;2023-05-21T16:09:01;36.10;39.80
26613;DHT22;14248;57.652;11.908;2023-05-21T16:11:26;36.00;39.40
26613;DHT22;14248;57.652;11.908;2023-05-21T16:13:54;35.90;39.30
26613;DHT22;14248;57.652;11.908;2023-05-21T16:16:20;35.70;39.90
26613;DHT22;14248;57.652;11.908;2023-05-21T16:18:46;36.00;40.50
26613;DHT22;14248;57.652;11.908;2023-05-21T16:21:12;36.40;39.60
26613;DHT22;14248;57.652;11.908;2023-05-21T16:23:39;36.60;39.10
26613;DHT22;14248;57.652;11.908;2023-05-21T16:26:05;36.70;38.90
26613;DHT22;14248;57.652;11.908;2023-05-21T16:28:31;36.70;38.80
26613;DHT22;14248;57.652;11.908;2023-05-21T16:30:57;36.50;38.80
26613;DHT22;14248;57.652;11.908;2023-05-21T16:33:22;36.40;39.00
26613;DHT22;14248;57.652;11.908;2023-05-21T16:35:48;36.50;38.90
26613;DHT22;14248;57.652;11.908;2023-05-21T16:38:14;36.40;39.10
26613;DHT22;14248;57.652;11.908;2023-05-21T16:40:40;36.40;38.80
26613;DHT22;14248;57.652;11.908;2023-05-21T16:43:06;36.30;39.10
26613;DHT22;14248;57.652;11.908;2023-05-21T16:45:43;36.30;39.30
26613;DHT22;14248;57.652;11.908;2023-05-21T16:48:10;36.40;39.30
26613;DHT22;14248;57.652;11.908;2023-05-21T16:50:36;36.40;39.20
26613;DHT22;14248;57.652;11.908;2023-05-21T16:53:03;36.10;39.30
26613;DHT22;14248;57.652;11.908;2023-05-21T16:55:35;35.90;39.60
26613;DHT22;14248;57.652;11.908;2023-05-21T16:58:03;35.80;40.10
26613;DHT22;14248;57.652;11.908;2023-05-21T17:00:29;35.60;40.00
26613;DHT22;14248;57.652;11.908;2023-05-21T17:02:55;35.40;40.50
26613;DHT22;14248;57.652;11.908;2023-05-21T17:05:21;35.50;40.20
26613;DHT22;14248;57.652;11.908;2023-05-21T17:07:48;35.50;40.70
26613;DHT22;14248;57.652;11.908;2023-05-21T17:10:14;35.60;40.40
26613;DHT22;14248;57.652;11.908;2023-05-21T17:12:39;35.60;40.60
26613;DHT22;14248;57.652;11.908;2023-05-21T17:15:07;35.60;40.80
26613;DHT22;14248;57.652;11.908;2023-05-21T17:17:33;35.70;41.00
26613;DHT22;14248;57.652;11.908;2023-05-21T17:20:00;36.00;41.30
26613;DHT22;14248;57.652;11.908;2023-05-21T17:22:26;36.30;41.00
26613;DHT22;14248;57.652;11.908;2023-05-21T17:24:54;36.50;40.80
26613;DHT22;14248;57.652;11.908;2023-05-21T17:27:20;36.60;40.60
26613;DHT22;14248;57.652;11.908;2023-05-21T17:29:45;36.80;40.90
26613;DHT22;14248;57.652;11.908;2023-05-21T17:32:11;36.80;40.80
26613;DHT22;14248;57.652;11.908;2023-05-21T17:34:37;36.90;40.50
26613;DHT22;14248;57.652;11.908;2023-05-21T17:37:03;36.90;40.60
26613;DHT22;14248;57.652;11.908;2023-05-21T17:39:29;36.90;40.60
26613;DHT22;14248;57.652;11.908;2023-05-21T17:41:55;37.00;40.60
26613;DHT22;14248;57.652;11.908;2023-05-21T17:44:21;36.90;40.70
26613;DHT22;14248;57.652;11.908;2023-05-21T17:46:50;36.80;40.70
26613;DHT22;14248;57.652;11.908;2023-05-21T17:49:17;36.70;41.00
26613;DHT22;14248;57.652;11.908;2023-05-21T17:51:44;36.50;41.00
26613;DHT22;14248;57.652;11.908;2023-05-21T17:54:10;36.30;41.20
26613;DHT22;14248;57.652;11.908;2023-05-21T17:56:36;36.10;41.20
26613;DHT22;14248;57.652;11.908;2023-05-21T17:59:08;35.80;41.70
26613;DHT22;14248;57.652;11.908;2023-05-21T18:01:36;35.50;42.00
26613;DHT22;14248;57.652;11.908;2023-05-21T18:04:03;35.20;42.10
26613;DHT22;14248;57.652;11.908;2023-05-21T18:23:35;34.90;42.50
26613;DHT22;14248;57.652;11.908;2023-05-21T18:28:27;33.00;44.80
